createdAt,value
2022-12-25T00:02:02.931Z,27.80
2022-12-25T00:04:35.642Z,31.02
2022-12-25T00:07:08.646Z,32.05
2022-12-25T00:09:41.340Z,37.13
2022-12-25T00:12:14.435Z,30.80
2022-12-25T00:14:47.273Z,31.65
2022-12-25T00:17:22.215Z,24.05
2022-12-25T00:19:55.040Z,31.38
2022-12-25T00:22:28.219Z,24.83
2022-12-25T00:25:01.026Z,31.17
2022-12-25T00:27:34.520Z,29.00
2022-12-25T00:30:08.173Z,27.00
2022-12-25T00:32:42.273Z,30.48
2022-12-25T00:35:15.105Z,26.38
2022-12-25T00:37:48.426Z,32.22
2022-12-25T00:40:22.298Z,25.13
2022-12-25T00:42:55.308Z,28.67
2022-12-25T00:45:28.119Z,27.45
2022-12-25T00:48:01.260Z,29.58
2022-12-25T00:50:33.947Z,27.35
2022-12-25T00:53:06.990Z,25.05
2022-12-25T00:55:39.718Z,24.90
2022-12-25T00:58:12.682Z,27.73
2022-12-25T01:00:45.420Z,25.73
2022-12-25T01:03:18.965Z,21.90
2022-12-25T01:06:00.546Z,29.70
2022-12-25T01:08:36.552Z,24.02
2022-12-25T01:11:09.368Z,26.15
2022-12-25T01:13:42.276Z,22.40
2022-12-25T01:16:16.400Z,25.48
2022-12-25T01:18:49.367Z,31.08
2022-12-25T01:21:23.151Z,25.27
2022-12-25T01:23:56.814Z,27.65
2022-12-25T01:26:29.432Z,22.13
2022-12-25T01:29:02.736Z,25.80
2022-12-25T01:31:35.807Z,28.92
2022-12-25T01:34:08.756Z,23.63
2022-12-25T01:36:41.436Z,22.75
2022-12-25T01:39:14.536Z,27.10
2022-12-25T01:42:56.098Z,25.00
2022-12-25T01:45:42.491Z,23.55
2022-12-25T01:48:20.738Z,25.02
2022-12-25T01:50:58.325Z,26.20
2022-12-25T01:53:31.265Z,26.30
2022-12-25T01:56:08.173Z,25.25
2022-12-25T01:58:41.177Z,22.77
2022-12-25T02:01:14.504Z,28.20
2022-12-25T02:03:47.165Z,29.02
2022-12-25T02:06:20.399Z,24.25
2022-12-25T02:08:53.031Z,26.40
2022-12-25T02:11:44.706Z,26.38
2022-12-25T02:14:17.621Z,29.67
2022-12-25T02:17:17.050Z,33.42
2022-12-25T02:19:53.548Z,25.40
2022-12-25T02:22:29.390Z,26.17
2022-12-25T02:25:25.143Z,25.30
2022-12-25T02:28:20.665Z,28.73
2022-12-25T02:31:10.675Z,23.13
2022-12-25T02:34:03.245Z,32.65
2022-12-25T02:36:50.885Z,25.95
2022-12-25T02:39:56.298Z,26.92
2022-12-25T02:42:55.229Z,30.98
2022-12-25T02:45:58.375Z,24.77
2022-12-25T02:48:54.032Z,26.33
2022-12-25T02:51:48.176Z,24.25
2022-12-25T02:54:45.597Z,31.55
2022-12-25T02:57:41.197Z,26.98
2022-12-25T03:00:33.566Z,25.45
2022-12-25T03:03:28.498Z,26.13
2022-12-25T03:06:22.618Z,35.65
2022-12-25T03:09:21.139Z,25.98
2022-12-25T03:12:25.202Z,29.58
2022-12-25T03:15:16.532Z,28.20
2022-12-25T03:17:49.508Z,38.70
2022-12-25T03:20:41.284Z,31.60
2022-12-25T03:23:55.487Z,34.88
2022-12-25T03:26:48.250Z,25.40
2022-12-25T03:29:41.595Z,35.63
2022-12-25T03:32:14.652Z,28.83
2022-12-25T03:35:17.855Z,29.48
2022-12-25T03:38:15.238Z,26.60
2022-12-25T03:41:35.908Z,28.35
2022-12-25T03:44:53.762Z,38.53
2022-12-25T03:47:49.885Z,32.85
2022-12-25T03:51:03.875Z,31.98
2022-12-25T03:54:03.240Z,41.50
2022-12-25T03:56:57.072Z,36.03
2022-12-25T03:59:48.349Z,32.83
2022-12-25T04:02:39.784Z,33.25
2022-12-25T04:05:30.962Z,37.38
2022-12-25T04:08:22.756Z,35.33
2022-12-25T04:11:13.664Z,35.85
2022-12-25T04:14:05.475Z,34.58
2022-12-25T04:16:56.692Z,30.98
2022-12-25T04:19:48.400Z,38.72
2022-12-25T04:22:39.429Z,30.42
2022-12-25T04:25:30.844Z,40.45
2022-12-25T04:28:22.983Z,35.85
2022-12-25T04:31:19.387Z,38.95
2022-12-25T04:34:11.142Z,42.42
2022-12-25T04:36:44.083Z,39.40
2022-12-25T04:39:16.756Z,41.28
2022-12-25T04:41:49.680Z,36.20
2022-12-25T04:44:22.278Z,36.10
2022-12-25T04:46:55.186Z,35.92
2022-12-25T04:49:27.790Z,32.88
2022-12-25T04:52:00.665Z,43.88
2022-12-25T04:54:33.373Z,32.58
2022-12-25T04:57:06.291Z,37.83
2022-12-25T04:59:38.874Z,37.13
2022-12-25T05:02:11.852Z,36.33
2022-12-25T05:04:44.523Z,36.85
2022-12-25T05:07:17.820Z,35.45
2022-12-25T05:09:50.597Z,39.63
2022-12-25T05:12:23.783Z,44.08
2022-12-25T05:14:56.581Z,33.58
2022-12-25T05:17:29.536Z,41.40
2022-12-25T05:20:02.991Z,40.25
2022-12-25T05:22:35.941Z,35.83
2022-12-25T05:25:08.799Z,38.28
2022-12-25T05:27:41.706Z,41.25
2022-12-25T05:30:14.566Z,37.38
2022-12-25T05:32:48.293Z,36.80
2022-12-25T05:35:20.905Z,40.58
2022-12-25T05:37:53.935Z,39.58
2022-12-25T05:40:26.842Z,36.85
2022-12-25T05:43:00.107Z,41.97
2022-12-25T05:45:32.877Z,45.72
2022-12-25T05:48:06.136Z,36.92
2022-12-25T05:50:39.053Z,38.75
2022-12-25T05:53:14.475Z,39.28
2022-12-25T05:55:47.119Z,36.72
2022-12-25T05:58:20.114Z,39.30
2022-12-25T06:00:52.792Z,40.38
2022-12-25T06:03:26.429Z,35.05
2022-12-25T06:05:59.230Z,37.28
2022-12-25T06:08:32.489Z,40.15
2022-12-25T06:11:07.523Z,41.40
2022-12-25T06:13:40.669Z,42.58
2022-12-25T06:16:13.769Z,42.65
2022-12-25T06:18:50.411Z,41.17
2022-12-25T06:21:23.204Z,40.30
2022-12-25T06:23:56.385Z,39.92
2022-12-25T06:26:29.219Z,38.20
2022-12-25T06:29:02.267Z,32.78
2022-12-25T06:31:34.966Z,35.92
2022-12-25T06:34:08.551Z,41.45
2022-12-25T06:36:41.220Z,35.97
2022-12-25T06:39:14.069Z,32.47
2022-12-25T06:41:47.124Z,35.20
2022-12-25T06:44:20.084Z,35.45
2022-12-25T06:46:53.896Z,35.80
2022-12-25T06:49:26.979Z,29.92
2022-12-25T06:51:59.564Z,35.97
2022-12-25T06:54:33.564Z,35.00
2022-12-25T06:57:06.151Z,37.58
2022-12-25T06:59:39.301Z,36.30
2022-12-25T07:02:21.697Z,42.63
2022-12-25T07:04:55.151Z,37.72
2022-12-25T07:07:27.836Z,37.53
2022-12-25T07:10:01.009Z,35.33
2022-12-25T07:12:33.719Z,40.40
2022-12-25T07:15:07.337Z,44.10
2022-12-25T07:17:40.001Z,44.78
2022-12-25T07:20:12.926Z,35.65
2022-12-25T07:22:45.641Z,41.17
2022-12-25T07:25:18.489Z,36.63
2022-12-25T07:27:51.152Z,43.35
2022-12-25T07:30:24.190Z,39.95
2022-12-25T07:32:57.493Z,41.45
2022-12-25T07:35:30.413Z,45.17
2022-12-25T07:38:03.119Z,46.90
2022-12-25T07:40:36.232Z,44.92
2022-12-25T07:43:08.803Z,49.67
2022-12-25T07:45:41.876Z,45.35
2022-12-25T07:48:16.828Z,47.40
2022-12-25T07:51:02.982Z,45.22
2022-12-25T07:53:36.792Z,42.10
2022-12-25T07:56:28.431Z,43.63
2022-12-25T07:59:01.005Z,40.47
2022-12-25T08:01:34.107Z,46.38
2022-12-25T08:04:08.401Z,53.28
2022-12-25T08:06:41.574Z,40.83
2022-12-25T08:09:14.279Z,42.08
2022-12-25T08:11:47.834Z,54.00
2022-12-25T08:14:20.867Z,42.97
2022-12-25T08:16:53.700Z,46.30
2022-12-25T08:19:26.423Z,48.08
2022-12-25T08:21:59.899Z,56.17
2022-12-25T08:24:32.604Z,51.47
2022-12-25T08:27:06.296Z,41.38
2022-12-25T08:29:42.127Z,52.22
2022-12-25T08:32:15.295Z,45.55
2022-12-25T08:34:47.868Z,52.17
2022-12-25T08:37:20.840Z,47.10
2022-12-25T08:39:53.822Z,50.42
2022-12-25T08:42:27.182Z,49.63
2022-12-25T08:44:59.927Z,46.45
2022-12-25T08:47:33.080Z,46.42
2022-12-25T08:50:06.479Z,46.33
2022-12-25T08:52:39.727Z,59.13
2022-12-25T08:55:12.785Z,46.13
2022-12-25T08:57:48.320Z,48.20
2022-12-25T09:00:21.134Z,51.95
2022-12-25T09:02:54.173Z,64.40
2022-12-25T09:05:27.170Z,60.47
2022-12-25T09:08:00.187Z,66.53
2022-12-25T09:10:36.499Z,60.80
2022-12-25T09:13:10.115Z,67.07
2022-12-25T09:15:42.941Z,63.55
2022-12-25T09:18:16.001Z,59.55
2022-12-25T09:21:01.289Z,59.72
2022-12-25T09:23:35.014Z,63.65
2022-12-25T09:26:10.774Z,66.28
2022-12-25T09:28:50.618Z,65.45
2022-12-25T09:31:24.169Z,58.53
2022-12-25T09:33:58.815Z,62.63
2022-12-25T09:36:31.445Z,59.33
2022-12-25T09:39:04.698Z,67.22
2022-12-25T09:41:54.237Z,66.30
2022-12-25T09:44:55.637Z,63.80
2022-12-25T09:47:32.171Z,59.03
2022-12-25T09:50:17.482Z,54.63
2022-12-25T09:53:24.887Z,46.85
2022-12-25T09:56:33.977Z,52.10
2022-12-25T09:59:20.865Z,48.75
2022-12-25T10:02:00.508Z,55.22
2022-12-25T10:04:40.943Z,54.33
2022-12-25T10:07:28.563Z,52.08
2022-12-25T10:10:13.479Z,47.80
2022-12-25T10:12:58.500Z,56.58
2022-12-25T10:15:45.910Z,49.78
2022-12-25T10:18:37.452Z,51.70
2022-12-25T10:21:13.830Z,42.75
2022-12-25T10:24:11.925Z,48.80
2022-12-25T10:26:45.687Z,41.08
2022-12-25T10:29:22.481Z,39.78
2022-12-25T10:31:56.838Z,42.45
2022-12-25T10:34:29.999Z,50.65
2022-12-25T10:37:02.661Z,49.80
2022-12-25T10:39:39.607Z,48.63
2022-12-25T10:42:29.124Z,46.17
2022-12-25T10:45:08.353Z,49.17
2022-12-25T10:47:44.047Z,41.85
2022-12-25T10:50:25.485Z,45.42
2022-12-25T10:53:02.463Z,43.85
2022-12-25T10:55:35.640Z,46.17
2022-12-25T10:58:08.393Z,47.58
2022-12-25T11:00:41.406Z,52.25
2022-12-25T11:03:31.098Z,58.88
2022-12-25T11:06:05.521Z,51.42
2022-12-25T11:08:38.157Z,60.05
2022-12-25T11:11:19.922Z,54.92
2022-12-25T11:13:56.119Z,51.42
2022-12-25T11:16:38.779Z,58.97
2022-12-25T11:19:32.552Z,59.80
2022-12-25T11:22:17.667Z,64.03
2022-12-25T11:24:50.678Z,70.03
2022-12-25T11:27:29.520Z,67.65
2022-12-25T11:30:09.987Z,65.10
2022-12-25T11:32:55.455Z,60.80
2022-12-25T11:35:32.304Z,60.58
2022-12-25T11:38:05.293Z,67.90
2022-12-25T11:40:47.053Z,63.65
2022-12-25T11:43:59.438Z,56.85
2022-12-25T11:46:42.443Z,67.65
2022-12-25T11:49:18.589Z,55.08
2022-12-25T11:51:55.579Z,55.13
2022-12-25T11:54:33.374Z,57.88
2022-12-25T11:57:07.225Z,56.83
2022-12-25T11:59:59.727Z,55.67
2022-12-25T12:02:47.376Z,49.95
2022-12-25T12:05:37.600Z,56.10
2022-12-25T12:08:11.603Z,49.28
2022-12-25T12:11:16.293Z,48.03
2022-12-25T12:14:19.747Z,46.03
2022-12-25T12:16:53.045Z,46.72
2022-12-25T12:19:31.013Z,49.70
2022-12-25T12:22:05.201Z,47.67
2022-12-25T12:24:41.725Z,48.20
2022-12-25T12:27:37.437Z,55.20
2022-12-25T12:30:36.535Z,44.80
2022-12-25T12:33:20.525Z,47.08
2022-12-25T12:35:53.361Z,53.90
2022-12-25T12:38:27.216Z,48.20
2022-12-25T12:41:05.752Z,55.38
2022-12-25T12:43:46.077Z,55.22
2022-12-25T12:46:31.378Z,53.63
2022-12-25T12:49:22.372Z,52.25
2022-12-25T12:55:01.114Z,50.55
2022-12-25T12:57:39.842Z,56.30
2022-12-25T13:00:19.270Z,65.40
2022-12-25T13:03:17.425Z,58.85
2022-12-25T13:06:05.552Z,58.05
2022-12-25T13:08:56.617Z,59.83
2022-12-25T13:11:38.958Z,49.35
2022-12-25T13:14:20.761Z,56.88
2022-12-25T13:16:54.955Z,60.17
2022-12-25T13:19:29.429Z,51.28
2022-12-25T13:22:06.702Z,56.20
2022-12-25T13:24:39.883Z,59.85
2022-12-25T13:27:24.607Z,55.92
2022-12-25T13:29:58.156Z,69.22
2022-12-25T13:32:33.648Z,63.92
2022-12-25T13:35:14.306Z,67.43
2022-12-25T13:37:48.011Z,57.08
2022-12-25T13:40:25.553Z,64.78
2022-12-25T13:43:01.055Z,67.80
2022-12-25T13:45:35.144Z,67.50
2022-12-25T13:48:20.235Z,69.65
2022-12-25T13:51:00.655Z,68.15
2022-12-25T13:53:33.889Z,69.53
2022-12-25T13:56:06.773Z,73.90
2022-12-25T13:58:39.974Z,76.32
2022-12-25T14:01:16.492Z,66.93
2022-12-25T14:03:49.593Z,76.00
2022-12-25T14:06:27.654Z,80.05
2022-12-25T14:09:00.796Z,76.53
2022-12-25T14:11:33.802Z,82.78
2022-12-25T14:14:26.663Z,80.13
2022-12-25T14:16:59.985Z,70.65
2022-12-25T14:19:34.680Z,67.95
2022-12-25T14:22:18.404Z,70.93
2022-12-25T14:24:51.861Z,69.95
2022-12-25T14:27:28.270Z,74.43
2022-12-25T14:30:01.604Z,80.70
2022-12-25T14:32:43.273Z,86.50
2022-12-25T14:35:23.140Z,80.68
2022-12-25T14:38:00.208Z,55.55
2022-12-25T14:40:36.175Z,73.63
2022-12-25T14:43:23.601Z,63.28
2022-12-25T14:45:59.222Z,68.32
2022-12-25T14:48:33.140Z,64.57
2022-12-25T14:51:16.738Z,67.25
2022-12-25T14:53:53.421Z,63.45
2022-12-25T14:56:29.183Z,79.88
2022-12-25T14:59:02.969Z,76.22
2022-12-25T15:01:39.201Z,61.42
2022-12-25T15:04:12.036Z,65.38
2022-12-25T15:07:11.430Z,59.63
2022-12-25T15:09:44.054Z,66.88
2022-12-25T15:12:16.925Z,67.05
2022-12-25T15:14:49.617Z,63.28
2022-12-25T15:17:26.660Z,64.55
2022-12-25T15:20:01.015Z,67.10
2022-12-25T15:22:53.975Z,71.25
2022-12-25T15:25:28.895Z,61.22
2022-12-25T15:28:01.720Z,59.75
2022-12-25T15:30:35.596Z,62.83
2022-12-25T15:33:14.681Z,64.38
2022-12-25T15:35:47.223Z,58.20
2022-12-25T15:38:20.107Z,60.03
2022-12-25T15:40:52.917Z,54.13
2022-12-25T15:43:41.718Z,62.25
2022-12-25T15:46:14.441Z,66.75
2022-12-25T15:48:47.272Z,61.85
2022-12-25T15:51:19.847Z,57.38
2022-12-25T15:53:52.753Z,56.47
2022-12-25T15:56:26.324Z,64.28
2022-12-25T15:58:59.309Z,62.70
2022-12-25T16:01:31.890Z,62.67
2022-12-25T16:04:05.007Z,69.45
2022-12-25T16:06:38.000Z,65.43
2022-12-25T16:09:12.863Z,70.90
2022-12-25T16:11:45.837Z,77.25
2022-12-25T16:14:19.654Z,73.03
2022-12-25T16:16:52.220Z,78.95
2022-12-25T16:19:26.519Z,83.43
2022-12-25T16:21:59.057Z,73.90
2022-12-25T16:24:31.913Z,79.68
2022-12-25T16:27:04.519Z,90.00
2022-12-25T16:29:37.371Z,74.93
2022-12-25T16:32:14.646Z,80.07
2022-12-25T16:34:48.848Z,80.45
2022-12-25T16:37:21.434Z,80.35
2022-12-25T16:39:54.291Z,83.20
2022-12-25T16:42:27.250Z,68.03
2022-12-25T16:45:00.207Z,82.57
2022-12-25T16:47:32.848Z,68.10
2022-12-25T16:50:06.723Z,77.93
2022-12-25T16:52:39.352Z,75.47
2022-12-25T16:55:12.261Z,66.60
2022-12-25T16:57:47.759Z,68.07
2022-12-25T17:00:21.020Z,61.92
2022-12-25T17:02:54.501Z,66.63
2022-12-25T17:05:27.841Z,60.60
2022-12-25T17:08:00.917Z,65.03
2022-12-25T17:10:33.867Z,62.78
2022-12-25T17:13:06.502Z,58.53
2022-12-25T17:15:39.897Z,61.72
2022-12-25T17:18:14.354Z,64.38
2022-12-25T17:20:52.094Z,62.83
2022-12-25T17:23:24.778Z,62.55
2022-12-25T17:26:01.452Z,62.55
2022-12-25T17:28:34.993Z,71.28
2022-12-25T17:31:10.583Z,71.68
2022-12-25T17:33:44.335Z,72.95
2022-12-25T17:36:19.662Z,62.08
2022-12-25T17:38:53.063Z,77.13
2022-12-25T17:41:25.878Z,75.82
2022-12-25T17:43:58.654Z,68.78
2022-12-25T17:46:31.969Z,80.38
2022-12-25T17:49:04.937Z,71.53
2022-12-25T17:51:37.822Z,79.38
2022-12-25T17:54:10.541Z,66.80
2022-12-25T17:56:43.481Z,78.20
2022-12-25T17:59:18.737Z,73.43
2022-12-25T18:01:51.832Z,80.40
2022-12-25T18:04:24.733Z,61.67
2022-12-25T18:06:57.664Z,70.13
2022-12-25T18:09:30.297Z,77.32
2022-12-25T18:12:03.182Z,63.28
2022-12-25T18:14:35.747Z,60.67
2022-12-25T18:17:08.711Z,60.58
2022-12-25T18:19:41.301Z,65.15
2022-12-25T18:22:14.198Z,54.13
2022-12-25T18:24:46.782Z,58.45
2022-12-25T18:27:20.193Z,58.92
2022-12-25T18:29:52.908Z,56.00
2022-12-25T18:32:28.209Z,50.25
2022-12-25T18:35:01.013Z,49.35
2022-12-25T18:37:40.060Z,57.10
2022-12-25T18:40:14.228Z,62.30
2022-12-25T18:42:51.774Z,47.55
2022-12-25T18:45:26.384Z,52.92
2022-12-25T18:48:03.313Z,50.50
2022-12-25T18:50:37.636Z,45.78
2022-12-25T18:53:10.718Z,51.03
2022-12-25T18:55:43.338Z,43.83
2022-12-25T18:58:16.242Z,53.42
2022-12-25T19:00:49.161Z,56.42
2022-12-25T19:03:23.647Z,49.33
2022-12-25T19:05:56.273Z,44.65
2022-12-25T19:08:29.116Z,58.03
2022-12-25T19:11:07.090Z,52.40
2022-12-25T19:13:40.001Z,50.97
2022-12-25T19:16:13.363Z,48.33
2022-12-25T19:18:46.449Z,51.95
2022-12-25T19:21:19.142Z,53.70
2022-12-25T19:23:53.834Z,57.28
2022-12-25T19:26:26.500Z,56.40
2022-12-25T19:28:59.384Z,53.03
2022-12-25T19:31:32.054Z,48.92
2022-12-25T19:34:05.397Z,49.28
2022-12-25T19:36:39.133Z,55.80
2022-12-25T19:39:12.373Z,49.53
2022-12-25T19:41:44.942Z,49.53
2022-12-25T19:44:17.780Z,43.42
2022-12-25T19:46:50.331Z,48.47
2022-12-25T19:49:23.120Z,45.45
2022-12-25T19:51:55.676Z,48.80
2022-12-25T19:54:29.561Z,40.83
2022-12-25T19:57:02.060Z,47.08
2022-12-25T19:59:34.937Z,44.13
2022-12-25T20:02:07.536Z,51.70
2022-12-25T20:04:40.398Z,40.35
2022-12-25T20:07:12.951Z,47.22
2022-12-25T20:09:45.721Z,45.50
2022-12-25T20:12:18.262Z,39.47
2022-12-25T20:14:51.102Z,47.85
2022-12-25T20:17:23.701Z,47.45
2022-12-25T20:19:56.470Z,42.70
2022-12-25T20:22:28.942Z,42.42
2022-12-25T20:25:03.323Z,42.90
2022-12-25T20:27:35.961Z,53.97
2022-12-25T20:30:09.073Z,45.47
2022-12-25T20:32:48.130Z,44.60
2022-12-25T20:35:23.030Z,46.92
2022-12-25T20:37:55.563Z,51.25
2022-12-25T20:40:28.640Z,44.67
2022-12-25T20:43:01.197Z,41.97
2022-12-25T20:45:34.315Z,48.92
2022-12-25T20:48:06.885Z,50.00
2022-12-25T20:50:39.917Z,42.42
2022-12-25T20:53:12.413Z,35.38
2022-12-25T20:55:49.968Z,40.67
2022-12-25T20:58:22.449Z,39.63
2022-12-25T21:00:55.853Z,37.08
2022-12-25T21:03:28.473Z,48.45
2022-12-25T21:06:02.098Z,41.92
2022-12-25T21:08:35.562Z,38.03
2022-12-25T21:11:09.765Z,34.15
2022-12-25T21:13:43.888Z,39.83
2022-12-25T21:16:20.135Z,32.55
2022-12-25T21:18:53.835Z,35.25
2022-12-25T21:21:27.220Z,33.72
2022-12-25T21:23:59.739Z,38.83
2022-12-25T21:26:32.557Z,39.70
2022-12-25T21:29:05.061Z,37.88
2022-12-25T21:31:56.657Z,41.63
2022-12-25T21:34:30.686Z,38.30
2022-12-25T21:37:03.555Z,40.38
2022-12-25T21:39:36.109Z,36.80
2022-12-25T21:42:08.975Z,37.78
2022-12-25T21:44:41.506Z,42.58
2022-12-25T21:47:14.296Z,32.80
2022-12-25T21:50:10.026Z,38.10
2022-12-25T21:52:42.824Z,40.28
2022-12-25T21:55:15.444Z,40.05
2022-12-25T21:57:48.304Z,38.33
2022-12-25T22:00:20.933Z,37.50
2022-12-25T22:02:53.838Z,40.75
2022-12-25T22:05:45.172Z,34.38
2022-12-25T22:08:17.942Z,33.17
2022-12-25T22:10:50.423Z,34.92
2022-12-25T22:13:41.828Z,39.00
2022-12-25T22:16:32.692Z,33.97
2022-12-25T22:19:23.773Z,34.55
2022-12-25T22:21:56.281Z,35.22
2022-12-25T22:24:29.069Z,42.90
2022-12-25T22:27:01.584Z,42.85
2022-12-25T22:29:34.454Z,44.90
2022-12-25T22:32:08.252Z,38.45
2022-12-25T22:34:41.240Z,40.42
2022-12-25T22:37:17.294Z,34.83
2022-12-25T22:39:50.273Z,39.15
2022-12-25T22:42:22.785Z,39.33
2022-12-25T22:44:55.635Z,39.83
2022-12-25T22:47:28.364Z,41.67
2022-12-25T22:50:01.353Z,35.80
2022-12-25T22:52:34.040Z,39.58
2022-12-25T22:55:08.438Z,35.58
2022-12-25T22:57:40.938Z,39.85
2022-12-25T23:00:14.039Z,35.90
2022-12-25T23:02:46.865Z,42.80
2022-12-25T23:05:19.878Z,44.50
2022-12-25T23:07:52.364Z,40.85
2022-12-25T23:10:25.307Z,42.67
2022-12-25T23:13:16.210Z,34.50
2022-12-25T23:15:49.174Z,51.35
2022-12-25T23:18:40.406Z,46.08
2022-12-25T23:21:34.259Z,38.10
2022-12-25T23:24:28.596Z,41.25
2022-12-25T23:27:01.496Z,38.25
2022-12-25T23:29:36.813Z,42.95
2022-12-25T23:32:15.886Z,40.92
2022-12-25T23:34:49.868Z,48.08
2022-12-25T23:37:22.694Z,43.28
2022-12-25T23:39:55.165Z,46.85
2022-12-25T23:42:28.042Z,41.90
2022-12-25T23:45:00.537Z,40.55
2022-12-25T23:47:33.377Z,34.58
2022-12-25T23:50:06.222Z,45.22
2022-12-25T23:52:39.836Z,37.13
2022-12-25T23:55:12.380Z,41.17
2022-12-25T23:57:45.157Z,38.15
